This is the latest recevied weather packets stored in our database for station/object OH2HCY. If no packets are shown the sender has not sent any weather packets the latest 1 day(s).
| Time | Temp. | Humidity | Pressure | Rain* | Wind** | Luminosity | Snow |
|---|---|---|---|---|---|---|---|
| 1778018020 | 3.33° C | 60% | 1007.7 hPa | - | 1.79 m/s, 268° | - | - |
| 1778017490 | 3.89° C | 59% | 1007.5 hPa | - | 2.24 m/s, 269° | - | - |
| 1778016931 | 3.89° C | 58% | 1007.4 hPa | - | 1.79 m/s, 267° | - | - |
| 1778016400 | 3.89° C | 58% | 1007.3 hPa | - | 1.79 m/s, 268° | - | - |
| 1778015890 | 3.89° C | 58% | 1007.3 hPa | - | 1.79 m/s, 267° | - | - |
| 1778015355 | 3.89° C | 57% | 1007.2 hPa | - | 1.34 m/s, 264° | - | - |
| 1778014806 | 4.44° C | 56% | 1007 hPa | - | 1.79 m/s, 268° | - | - |
| 1778014270 | 4.44° C | 55% | 1006.9 hPa | - | 1.79 m/s, 270° | - | - |
| 1778013716 | 5° C | 54% | 1006.6 hPa | - | 1.79 m/s, 272° | - | - |
| 1778013205 | 5° C | 54% | 1006.4 hPa | - | 1.79 m/s, 269° | - | - |
| 1778012674 | 5° C | 53% | 1006.3 hPa | - | 1.79 m/s, 268° | - | - |
| 1778012120 | 5° C | 53% | 1006.2 hPa | - | 1.79 m/s, 269° | - | - |
| 1778011575 | 5° C | 52% | 1006.1 hPa | - | 2.24 m/s, 273° | - | - |
| 1778011025 | 5.56° C | 51% | 1005.9 hPa | - | 2.24 m/s, 271° | - | - |
| 1778010480 | 5.56° C | 50% | 1005.7 hPa | - | 1.79 m/s, 272° | - | - |
| 1778009970 | 6.11° C | 50% | 1005.6 hPa | - | 2.24 m/s, 271° | - | - |
| 1778009420 | 6.11° C | 49% | 1005.5 hPa | - | 2.24 m/s, 266° | - | - |
| 1778008880 | 6.11° C | 48% | 1005.4 hPa | - | 3.13 m/s, 264° | - | - |
| 1778008338 | 6.11° C | 47% | 1005.2 hPa | - | 2.68 m/s, 263° | - | - |
| 1778007782 | 6.67° C | 46% | 1005 hPa | - | 2.68 m/s, 264° | - | - |
| 1778007260 | 6.67° C | 45% | 1004.9 hPa | - | 2.68 m/s, 261° | - | - |
| 1778006760 | 6.67° C | 45% | 1004.8 hPa | - | 2.68 m/s, 258° | - | - |
| 1778006225 | 7.22° C | 44% | 1004.6 hPa | - | 2.68 m/s, 257° | - | - |
| 1778005695 | 7.22° C | 43% | 1004.4 hPa | - | 2.68 m/s, 267° | - | - |
| 1778005150 | 7.78° C | 42% | 1004.1 hPa | - | 2.68 m/s, 264° | - | - |
* Rain since midnight (hover to see other rain measurements)
** Current wind speed in m/s (hover to see current wind gust speed)